sensor_id;sensor_type;location;lat;lon;timestamp;temperature;humidity
2465;DHT22;1244;54.326;10.074;2023-07-20T00:02:13;14.30;99.90
2465;DHT22;1244;54.326;10.074;2023-07-20T00:04:39;14.20;99.90
2465;DHT22;1244;54.326;10.074;2023-07-20T00:07:05;14.20;99.90
2465;DHT22;1244;54.326;10.074;2023-07-20T00:09:31;14.10;99.90
2465;DHT22;1244;54.326;10.074;2023-07-20T00:11:56;14.10;99.90
2465;DHT22;1244;54.326;10.074;2023-07-20T00:14:22;13.90;99.90
2465;DHT22;1244;54.326;10.074;2023-07-20T00:16:50;13.90;99.90
2465;DHT22;1244;54.326;10.074;2023-07-20T00:19:21;14.00;99.90
2465;DHT22;1244;54.326;10.074;2023-07-20T00:21:47;13.80;99.90
2465;DHT22;1244;54.326;10.074;2023-07-20T00:24:12;13.80;99.90
2465;DHT22;1244;54.326;10.074;2023-07-20T00:26:38;13.70;99.90
2465;DHT22;1244;54.326;10.074;2023-07-20T00:29:03;13.70;99.90
2465;DHT22;1244;54.326;10.074;2023-07-20T00:31:29;13.50;99.90
2465;DHT22;1244;54.326;10.074;2023-07-20T00:33:54;13.60;99.90
2465;DHT22;1244;54.326;10.074;2023-07-20T00:36:20;13.70;99.90
2465;DHT22;1244;54.326;10.074;2023-07-20T00:38:45;13.80;99.90
2465;DHT22;1244;54.326;10.074;2023-07-20T00:41:11;13.80;99.90
2465;DHT22;1244;54.326;10.074;2023-07-20T00:43:36;13.70;99.90
2465;DHT22;1244;54.326;10.074;2023-07-20T00:46:02;13.70;99.90
2465;DHT22;1244;54.326;10.074;2023-07-20T00:48:29;13.70;99.90
2465;DHT22;1244;54.326;10.074;2023-07-20T00:50:55;13.60;99.90
2465;DHT22;1244;54.326;10.074;2023-07-20T00:53:21;13.60;99.90
2465;DHT22;1244;54.326;10.074;2023-07-20T00:55:47;13.70;99.90
2465;DHT22;1244;54.326;10.074;2023-07-20T00:58:12;13.60;99.90
2465;DHT22;1244;54.326;10.074;2023-07-20T01:00:38;13.60;99.90
2465;DHT22;1244;54.326;10.074;2023-07-20T01:03:03;13.50;99.90
2465;DHT22;1244;54.326;10.074;2023-07-20T01:05:54;13.50;99.90
2465;DHT22;1244;54.326;10.074;2023-07-20T01:08:45;13.60;99.90
2465;DHT22;1244;54.326;10.074;2023-07-20T01:11:16;13.50;99.90
2465;DHT22;1244;54.326;10.074;2023-07-20T01:13:44;13.50;99.90
2465;DHT22;1244;54.326;10.074;2023-07-20T01:16:11;13.40;99.90
2465;DHT22;1244;54.326;10.074;2023-07-20T01:18:36;13.40;99.90
2465;DHT22;1244;54.326;10.074;2023-07-20T01:21:07;13.50;99.90
2465;DHT22;1244;54.326;10.074;2023-07-20T01:32:00;13.30;99.90
2465;DHT22;1244;54.326;10.074;2023-07-20T01:34:28;13.20;99.90
2465;DHT22;1244;54.326;10.074;2023-07-20T01:36:55;13.30;99.90
2465;DHT22;1244;54.326;10.074;2023-07-20T01:39:21;13.30;99.90
2465;DHT22;1244;54.326;10.074;2023-07-20T01:41:47;13.20;99.90
2465;DHT22;1244;54.326;10.074;2023-07-20T01:44:13;13.30;99.90
2465;DHT22;1244;54.326;10.074;2023-07-20T01:46:38;13.20;99.90
2465;DHT22;1244;54.326;10.074;2023-07-20T01:49:04;13.20;99.90
2465;DHT22;1244;54.326;10.074;2023-07-20T01:51:29;13.10;99.90
2465;DHT22;1244;54.326;10.074;2023-07-20T01:53:55;13.10;99.90
2465;DHT22;1244;54.326;10.074;2023-07-20T01:56:20;13.20;99.90
2465;DHT22;1244;54.326;10.074;2023-07-20T01:58:46;13.10;99.90
2465;DHT22;1244;54.326;10.074;2023-07-20T02:01:11;13.10;99.90
2465;DHT22;1244;54.326;10.074;2023-07-20T02:03:37;13.10;99.90
2465;DHT22;1244;54.326;10.074;2023-07-20T02:06:02;13.20;99.90
2465;DHT22;1244;54.326;10.074;2023-07-20T02:08:28;13.10;99.90
2465;DHT22;1244;54.326;10.074;2023-07-20T02:10:53;13.10;99.90
2465;DHT22;1244;54.326;10.074;2023-07-20T02:13:19;13.10;99.90
2465;DHT22;1244;54.326;10.074;2023-07-20T02:15:44;13.00;99.90
2465;DHT22;1244;54.326;10.074;2023-07-20T02:18:12;13.10;99.90
2465;DHT22;1244;54.326;10.074;2023-07-20T02:20:38;13.00;99.90
2465;DHT22;1244;54.326;10.074;2023-07-20T02:23:03;13.10;99.90
2465;DHT22;1244;54.326;10.074;2023-07-20T02:25:29;13.00;99.90
2465;DHT22;1244;54.326;10.074;2023-07-20T02:27:56;13.00;99.90
2465;DHT22;1244;54.326;10.074;2023-07-20T02:30:22;13.10;99.90
2465;DHT22;1244;54.326;10.074;2023-07-20T02:32:47;13.00;99.90
2465;DHT22;1244;54.326;10.074;2023-07-20T02:35:17;13.00;99.90
2465;DHT22;1244;54.326;10.074;2023-07-20T02:37:42;13.10;99.90
2465;DHT22;1244;54.326;10.074;2023-07-20T02:40:08;13.10;99.90
2465;DHT22;1244;54.326;10.074;2023-07-20T02:42:34;13.10;99.90
2465;DHT22;1244;54.326;10.074;2023-07-20T02:45:01;13.20;99.90
2465;DHT22;1244;54.326;10.074;2023-07-20T02:47:26;13.20;99.90
2465;DHT22;1244;54.326;10.074;2023-07-20T02:49:52;13.20;99.90
2465;DHT22;1244;54.326;10.074;2023-07-20T02:52:17;13.10;99.90
2465;DHT22;1244;54.326;10.074;2023-07-20T02:54:43;13.10;99.90
2465;DHT22;1244;54.326;10.074;2023-07-20T02:57:08;13.00;99.90
2465;DHT22;1244;54.326;10.074;2023-07-20T02:59:34;13.00;99.90
2465;DHT22;1244;54.326;10.074;2023-07-20T03:01:59;13.00;99.90
2465;DHT22;1244;54.326;10.074;2023-07-20T03:04:28;13.00;99.90
2465;DHT22;1244;54.326;10.074;2023-07-20T03:06:54;12.90;99.90
2465;DHT22;1244;54.326;10.074;2023-07-20T03:09:19;12.80;99.90
2465;DHT22;1244;54.326;10.074;2023-07-20T03:11:45;12.70;99.90
2465;DHT22;1244;54.326;10.074;2023-07-20T03:14:10;12.80;99.90
2465;DHT22;1244;54.326;10.074;2023-07-20T03:16:36;12.80;99.90
2465;DHT22;1244;54.326;10.074;2023-07-20T03:19:01;12.80;99.90
2465;DHT22;1244;54.326;10.074;2023-07-20T03:21:27;12.80;99.90
2465;DHT22;1244;54.326;10.074;2023-07-20T03:23:53;12.90;99.90
2465;DHT22;1244;54.326;10.074;2023-07-20T03:26:19;12.90;99.90
2465;DHT22;1244;54.326;10.074;2023-07-20T03:28:44;12.90;99.90
2465;DHT22;1244;54.326;10.074;2023-07-20T03:31:10;13.00;99.90
2465;DHT22;1244;54.326;10.074;2023-07-20T03:33:35;13.00;99.90
2465;DHT22;1244;54.326;10.074;2023-07-20T03:36:01;13.10;99.90
2465;DHT22;1244;54.326;10.074;2023-07-20T03:38:27;13.10;99.90
2465;DHT22;1244;54.326;10.074;2023-07-20T03:40:55;13.20;99.90
2465;DHT22;1244;54.326;10.074;2023-07-20T03:43:21;13.20;99.90
2465;DHT22;1244;54.326;10.074;2023-07-20T03:45:47;13.20;99.90
2465;DHT22;1244;54.326;10.074;2023-07-20T03:48:15;13.20;99.90
2465;DHT22;1244;54.326;10.074;2023-07-20T03:50:40;13.20;99.90
2465;DHT22;1244;54.326;10.074;2023-07-20T03:53:06;13.20;99.90
2465;DHT22;1244;54.326;10.074;2023-07-20T03:55:32;13.20;99.90
2465;DHT22;1244;54.326;10.074;2023-07-20T03:57:58;13.20;99.90
2465;DHT22;1244;54.326;10.074;2023-07-20T04:00:23;13.10;99.90
2465;DHT22;1244;54.326;10.074;2023-07-20T04:02:49;13.10;99.90
2465;DHT22;1244;54.326;10.074;2023-07-20T04:05:15;13.10;99.90
2465;DHT22;1244;54.326;10.074;2023-07-20T04:07:40;13.10;99.90
2465;DHT22;1244;54.326;10.074;2023-07-20T04:10:07;13.10;99.90
2465;DHT22;1244;54.326;10.074;2023-07-20T04:12:32;13.00;99.90
2465;DHT22;1244;54.326;10.074;2023-07-20T04:14:58;13.10;99.90
2465;DHT22;1244;54.326;10.074;2023-07-20T04:17:23;13.10;99.90
2465;DHT22;1244;54.326;10.074;2023-07-20T04:19:49;13.00;99.90
2465;DHT22;1244;54.326;10.074;2023-07-20T04:22:14;12.90;99.90
2465;DHT22;1244;54.326;10.074;2023-07-20T04:24:42;13.00;99.90
2465;DHT22;1244;54.326;10.074;2023-07-20T04:27:08;13.00;99.90
2465;DHT22;1244;54.326;10.074;2023-07-20T04:29:34;13.00;99.90
2465;DHT22;1244;54.326;10.074;2023-07-20T04:31:59;13.00;99.90
2465;DHT22;1244;54.326;10.074;2023-07-20T04:34:25;12.90;99.90
2465;DHT22;1244;54.326;10.074;2023-07-20T04:36:50;13.00;99.90
2465;DHT22;1244;54.326;10.074;2023-07-20T04:39:16;13.10;99.90
2465;DHT22;1244;54.326;10.074;2023-07-20T04:41:41;13.10;99.90
2465;DHT22;1244;54.326;10.074;2023-07-20T04:44:07;13.10;99.90
2465;DHT22;1244;54.326;10.074;2023-07-20T04:46:32;13.10;99.90
2465;DHT22;1244;54.326;10.074;2023-07-20T04:48:58;13.20;99.90
2465;DHT22;1244;54.326;10.074;2023-07-20T04:51:23;13.30;99.90
2465;DHT22;1244;54.326;10.074;2023-07-20T04:53:49;13.50;99.90
2465;DHT22;1244;54.326;10.074;2023-07-20T04:56:15;13.70;99.90
2465;DHT22;1244;54.326;10.074;2023-07-20T04:58:40;13.80;99.90
2465;DHT22;1244;54.326;10.074;2023-07-20T05:01:06;14.00;99.90
2465;DHT22;1244;54.326;10.074;2023-07-20T05:03:31;14.00;99.90
2465;DHT22;1244;54.326;10.074;2023-07-20T05:05:57;14.00;99.90
2465;DHT22;1244;54.326;10.074;2023-07-20T05:08:23;14.00;99.90
2465;DHT22;1244;54.326;10.074;2023-07-20T05:10:48;14.10;99.90
2465;DHT22;1244;54.326;10.074;2023-07-20T05:13:14;14.20;99.90
2465;DHT22;1244;54.326;10.074;2023-07-20T05:15:40;14.30;99.90
2465;DHT22;1244;54.326;10.074;2023-07-20T05:18:05;14.40;99.90
2465;DHT22;1244;54.326;10.074;2023-07-20T05:20:31;14.40;99.90
2465;DHT22;1244;54.326;10.074;2023-07-20T05:22:58;14.40;99.90
2465;DHT22;1244;54.326;10.074;2023-07-20T05:25:24;14.30;99.90
2465;DHT22;1244;54.326;10.074;2023-07-20T05:27:49;14.30;99.90
2465;DHT22;1244;54.326;10.074;2023-07-20T05:30:16;14.40;99.90
2465;DHT22;1244;54.326;10.074;2023-07-20T05:32:42;14.40;99.90
2465;DHT22;1244;54.326;10.074;2023-07-20T05:35:10;14.60;99.90
2465;DHT22;1244;54.326;10.074;2023-07-20T05:37:37;14.70;99.90
2465;DHT22;1244;54.326;10.074;2023-07-20T05:40:04;14.70;99.90
2465;DHT22;1244;54.326;10.074;2023-07-20T05:42:29;14.70;99.90
2465;DHT22;1244;54.326;10.074;2023-07-20T05:44:55;14.80;99.90
2465;DHT22;1244;54.326;10.074;2023-07-20T05:47:20;14.60;99.90
2465;DHT22;1244;54.326;10.074;2023-07-20T05:49:46;14.50;99.90
2465;DHT22;1244;54.326;10.074;2023-07-20T05:52:13;14.60;99.90
2465;DHT22;1244;54.326;10.074;2023-07-20T05:54:38;14.70;99.90
2465;DHT22;1244;54.326;10.074;2023-07-20T05:57:04;14.80;99.90
2465;DHT22;1244;54.326;10.074;2023-07-20T05:59:30;14.80;99.90
2465;DHT22;1244;54.326;10.074;2023-07-20T06:01:55;14.90;99.90
2465;DHT22;1244;54.326;10.074;2023-07-20T06:04:21;15.10;99.90
2465;DHT22;1244;54.326;10.074;2023-07-20T06:06:46;15.20;99.90
2465;DHT22;1244;54.326;10.074;2023-07-20T06:09:13;15.30;99.90
2465;DHT22;1244;54.326;10.074;2023-07-20T06:11:39;15.30;99.90
2465;DHT22;1244;54.326;10.074;2023-07-20T06:14:05;15.30;99.90
2465;DHT22;1244;54.326;10.074;2023-07-20T06:16:30;15.40;99.90
2465;DHT22;1244;54.326;10.074;2023-07-20T06:18:56;15.50;99.90
2465;DHT22;1244;54.326;10.074;2023-07-20T06:21:22;15.40;99.90
2465;DHT22;1244;54.326;10.074;2023-07-20T06:23:47;15.50;99.90
2465;DHT22;1244;54.326;10.074;2023-07-20T06:26:13;15.50;99.90
2465;DHT22;1244;54.326;10.074;2023-07-20T06:28:38;15.70;99.90
2465;DHT22;1244;54.326;10.074;2023-07-20T06:31:04;15.80;99.90
2465;DHT22;1244;54.326;10.074;2023-07-20T06:33:29;15.80;99.90
2465;DHT22;1244;54.326;10.074;2023-07-20T06:35:55;15.90;99.90
2465;DHT22;1244;54.326;10.074;2023-07-20T06:38:22;16.00;99.90
2465;DHT22;1244;54.326;10.074;2023-07-20T06:40:49;16.10;99.90
2465;DHT22;1244;54.326;10.074;2023-07-20T06:43:15;16.20;99.90
2465;DHT22;1244;54.326;10.074;2023-07-20T06:45:41;16.20;99.90
2465;DHT22;1244;54.326;10.074;2023-07-20T06:48:07;16.20;99.90
2465;DHT22;1244;54.326;10.074;2023-07-20T06:50:32;16.30;99.90
2465;DHT22;1244;54.326;10.074;2023-07-20T06:52:58;16.40;99.90
2465;DHT22;1244;54.326;10.074;2023-07-20T06:55:25;16.30;99.90
2465;DHT22;1244;54.326;10.074;2023-07-20T06:57:51;16.60;99.90
2465;DHT22;1244;54.326;10.074;2023-07-20T07:00:17;16.80;99.90
2465;DHT22;1244;54.326;10.074;2023-07-20T07:02:42;16.90;99.90
2465;DHT22;1244;54.326;10.074;2023-07-20T07:05:08;17.20;99.90
2465;DHT22;1244;54.326;10.074;2023-07-20T07:07:33;17.50;99.90
2465;DHT22;1244;54.326;10.074;2023-07-20T07:10:00;17.60;99.90
2465;DHT22;1244;54.326;10.074;2023-07-20T07:12:26;17.60;99.90
2465;DHT22;1244;54.326;10.074;2023-07-20T07:14:51;17.40;99.90
2465;DHT22;1244;54.326;10.074;2023-07-20T07:17:18;17.20;99.90
2465;DHT22;1244;54.326;10.074;2023-07-20T07:19:43;16.80;99.90
2465;DHT22;1244;54.326;10.074;2023-07-20T07:22:09;16.70;99.90
2465;DHT22;1244;54.326;10.074;2023-07-20T07:24:35;16.60;99.90
2465;DHT22;1244;54.326;10.074;2023-07-20T07:27:01;16.50;99.90
2465;DHT22;1244;54.326;10.074;2023-07-20T07:29:27;16.10;99.90
2465;DHT22;1244;54.326;10.074;2023-07-20T07:31:53;15.90;99.90
2465;DHT22;1244;54.326;10.074;2023-07-20T07:34:18;16.00;99.90
2465;DHT22;1244;54.326;10.074;2023-07-20T07:36:44;16.30;99.90
2465;DHT22;1244;54.326;10.074;2023-07-20T07:39:10;16.70;99.90
2465;DHT22;1244;54.326;10.074;2023-07-20T07:41:36;17.20;99.90
2465;DHT22;1244;54.326;10.074;2023-07-20T07:44:01;17.20;99.90
2465;DHT22;1244;54.326;10.074;2023-07-20T07:46:27;17.30;99.90
2465;DHT22;1244;54.326;10.074;2023-07-20T07:48:52;17.30;99.90
2465;DHT22;1244;54.326;10.074;2023-07-20T07:51:18;17.10;99.90
2465;DHT22;1244;54.326;10.074;2023-07-20T07:53:45;17.40;99.90
2465;DHT22;1244;54.326;10.074;2023-07-20T07:56:11;17.50;99.90
2465;DHT22;1244;54.326;10.074;2023-07-20T07:58:36;17.30;99.90
2465;DHT22;1244;54.326;10.074;2023-07-20T08:01:02;17.10;99.90
2465;DHT22;1244;54.326;10.074;2023-07-20T08:03:28;17.10;99.90
2465;DHT22;1244;54.326;10.074;2023-07-20T08:05:56;17.50;99.90
2465;DHT22;1244;54.326;10.074;2023-07-20T08:08:22;17.60;99.90
2465;DHT22;1244;54.326;10.074;2023-07-20T08:10:48;18.20;99.90
2465;DHT22;1244;54.326;10.074;2023-07-20T08:13:13;18.60;99.90
2465;DHT22;1244;54.326;10.074;2023-07-20T08:15:41;18.30;99.90
2465;DHT22;1244;54.326;10.074;2023-07-20T08:18:07;17.90;99.90
2465;DHT22;1244;54.326;10.074;2023-07-20T08:20:33;17.40;99.90
2465;DHT22;1244;54.326;10.074;2023-07-20T08:23:01;16.80;99.90
2465;DHT22;1244;54.326;10.074;2023-07-20T08:25:26;16.60;99.90
2465;DHT22;1244;54.326;10.074;2023-07-20T08:27:52;16.70;99.90
2465;DHT22;1244;54.326;10.074;2023-07-20T08:30:21;17.50;99.90
2465;DHT22;1244;54.326;10.074;2023-07-20T08:32:46;18.10;99.90
2465;DHT22;1244;54.326;10.074;2023-07-20T08:35:12;18.00;99.90
2465;DHT22;1244;54.326;10.074;2023-07-20T08:37:38;17.60;99.90
2465;DHT22;1244;54.326;10.074;2023-07-20T08:40:04;17.10;99.90
2465;DHT22;1244;54.326;10.074;2023-07-20T08:42:29;17.00;99.90
2465;DHT22;1244;54.326;10.074;2023-07-20T08:44:56;16.60;99.90
2465;DHT22;1244;54.326;10.074;2023-07-20T08:47:23;16.70;99.90
2465;DHT22;1244;54.326;10.074;2023-07-20T08:49:51;17.10;99.90
2465;DHT22;1244;54.326;10.074;2023-07-20T08:52:17;17.80;99.90
2465;DHT22;1244;54.326;10.074;2023-07-20T08:54:42;18.80;99.90
2465;DHT22;1244;54.326;10.074;2023-07-20T08:57:08;18.70;99.90
2465;DHT22;1244;54.326;10.074;2023-07-20T08:59:38;18.50;99.90
2465;DHT22;1244;54.326;10.074;2023-07-20T09:02:04;18.20;99.90
2465;DHT22;1244;54.326;10.074;2023-07-20T09:04:30;18.50;99.90
2465;DHT22;1244;54.326;10.074;2023-07-20T09:06:57;18.80;99.90
2465;DHT22;1244;54.326;10.074;2023-07-20T09:09:22;19.20;99.90
2465;DHT22;1244;54.326;10.074;2023-07-20T09:11:51;19.90;99.90
2465;DHT22;1244;54.326;10.074;2023-07-20T09:14:17;20.00;99.90
2465;DHT22;1244;54.326;10.074;2023-07-20T09:16:55;20.10;99.90
2465;DHT22;1244;54.326;10.074;2023-07-20T09:19:22;20.80;99.90
2465;DHT22;1244;54.326;10.074;2023-07-20T09:21:51;20.40;99.90
2465;DHT22;1244;54.326;10.074;2023-07-20T09:24:20;20.30;99.90
2465;DHT22;1244;54.326;10.074;2023-07-20T09:26:47;19.90;99.90
2465;DHT22;1244;54.326;10.074;2023-07-20T09:29:14;19.90;99.90
2465;DHT22;1244;54.326;10.074;2023-07-20T09:31:42;19.30;99.90
2465;DHT22;1244;54.326;10.074;2023-07-20T09:34:09;19.00;99.90
2465;DHT22;1244;54.326;10.074;2023-07-20T09:36:36;18.80;99.90
2465;DHT22;1244;54.326;10.074;2023-07-20T09:39:03;18.60;99.90
2465;DHT22;1244;54.326;10.074;2023-07-20T09:41:29;18.10;99.90
2465;DHT22;1244;54.326;10.074;2023-07-20T09:43:54;19.00;99.90
2465;DHT22;1244;54.326;10.074;2023-07-20T09:46:20;19.90;99.90
2465;DHT22;1244;54.326;10.074;2023-07-20T09:48:54;19.60;99.90
2465;DHT22;1244;54.326;10.074;2023-07-20T09:51:23;19.40;99.90
2465;DHT22;1244;54.326;10.074;2023-07-20T09:53:52;19.00;99.90
2465;DHT22;1244;54.326;10.074;2023-07-20T09:56:21;19.10;99.90
2465;DHT22;1244;54.326;10.074;2023-07-20T09:58:48;19.10;99.90
2465;DHT22;1244;54.326;10.074;2023-07-20T10:01:20;19.30;99.90
2465;DHT22;1244;54.326;10.074;2023-07-20T10:03:47;20.00;99.90
2465;DHT22;1244;54.326;10.074;2023-07-20T10:06:17;21.10;99.90
2465;DHT22;1244;54.326;10.074;2023-07-20T10:08:46;21.40;99.90
2465;DHT22;1244;54.326;10.074;2023-07-20T10:11:15;21.00;99.90
2465;DHT22;1244;54.326;10.074;2023-07-20T10:13:41;21.20;99.90
2465;DHT22;1244;54.326;10.074;2023-07-20T10:16:15;20.70;99.90
2465;DHT22;1244;54.326;10.074;2023-07-20T10:21:21;21.20;99.90
2465;DHT22;1244;54.326;10.074;2023-07-20T10:23:48;21.60;99.90
2465;DHT22;1244;54.326;10.074;2023-07-20T10:26:14;21.40;99.90
2465;DHT22;1244;54.326;10.074;2023-07-20T10:28:40;19.40;99.90
2465;DHT22;1244;54.326;10.074;2023-07-20T10:31:08;18.30;99.90
2465;DHT22;1244;54.326;10.074;2023-07-20T10:33:36;17.70;99.90
2465;DHT22;1244;54.326;10.074;2023-07-20T10:36:03;16.60;99.90
2465;DHT22;1244;54.326;10.074;2023-07-20T10:41:34;16.70;99.90
2465;DHT22;1244;54.326;10.074;2023-07-20T10:44:02;17.00;99.90
2465;DHT22;1244;54.326;10.074;2023-07-20T10:47:07;17.90;99.90
2465;DHT22;1244;54.326;10.074;2023-07-20T10:49:34;19.20;99.90
2465;DHT22;1244;54.326;10.074;2023-07-20T10:52:04;19.70;99.90
2465;DHT22;1244;54.326;10.074;2023-07-20T10:56:57;21.60;99.90
2465;DHT22;1244;54.326;10.074;2023-07-20T11:01:49;22.70;99.90
2465;DHT22;1244;54.326;10.074;2023-07-20T11:04:16;21.80;99.90
2465;DHT22;1244;54.326;10.074;2023-07-20T11:06:44;20.90;99.90
2465;DHT22;1244;54.326;10.074;2023-07-20T11:09:14;19.60;99.90
2465;DHT22;1244;54.326;10.074;2023-07-20T11:11:47;19.40;99.90
2465;DHT22;1244;54.326;10.074;2023-07-20T11:14:23;20.00;99.90
2465;DHT22;1244;54.326;10.074;2023-07-20T11:16:51;21.60;99.90
2465;DHT22;1244;54.326;10.074;2023-07-20T11:19:25;22.50;99.90
2465;DHT22;1244;54.326;10.074;2023-07-20T11:21:57;23.00;99.90
2465;DHT22;1244;54.326;10.074;2023-07-20T11:24:23;23.50;99.90
2465;DHT22;1244;54.326;10.074;2023-07-20T11:26:52;23.70;99.90
2465;DHT22;1244;54.326;10.074;2023-07-20T11:29:20;24.40;99.90
2465;DHT22;1244;54.326;10.074;2023-07-20T11:31:47;24.40;99.90
2465;DHT22;1244;54.326;10.074;2023-07-20T11:34:17;25.20;99.90
2465;DHT22;1244;54.326;10.074;2023-07-20T11:36:44;25.40;99.90
2465;DHT22;1244;54.326;10.074;2023-07-20T11:39:12;24.80;99.90
2465;DHT22;1244;54.326;10.074;2023-07-20T11:41:38;25.70;99.90
2465;DHT22;1244;54.326;10.074;2023-07-20T11:44:05;26.10;99.90
2465;DHT22;1244;54.326;10.074;2023-07-20T11:46:39;26.00;99.90
2465;DHT22;1244;54.326;10.074;2023-07-20T11:49:05;26.90;99.90
2465;DHT22;1244;54.326;10.074;2023-07-20T11:51:31;25.30;99.90
2465;DHT22;1244;54.326;10.074;2023-07-20T11:53:58;25.40;99.90
2465;DHT22;1244;54.326;10.074;2023-07-20T11:56:25;25.00;99.90
2465;DHT22;1244;54.326;10.074;2023-07-20T11:58:55;25.20;99.90
2465;DHT22;1244;54.326;10.074;2023-07-20T12:01:23;24.80;99.90
2465;DHT22;1244;54.326;10.074;2023-07-20T12:03:48;24.80;99.90
2465;DHT22;1244;54.326;10.074;2023-07-20T12:06:15;23.20;99.90
2465;DHT22;1244;54.326;10.074;2023-07-20T12:08:42;23.00;99.90
2465;DHT22;1244;54.326;10.074;2023-07-20T12:11:08;22.00;99.90
2465;DHT22;1244;54.326;10.074;2023-07-20T12:13:38;21.60;99.90
2465;DHT22;1244;54.326;10.074;2023-07-20T12:16:16;22.90;99.90
2465;DHT22;1244;54.326;10.074;2023-07-20T12:18:43;24.50;99.90
2465;DHT22;1244;54.326;10.074;2023-07-20T12:21:10;24.90;99.90
2465;DHT22;1244;54.326;10.074;2023-07-20T12:23:39;25.20;99.90
2465;DHT22;1244;54.326;10.074;2023-07-20T12:26:09;25.60;99.90
2465;DHT22;1244;54.326;10.074;2023-07-20T12:28:41;25.20;99.90
2465;DHT22;1244;54.326;10.074;2023-07-20T12:31:08;26.20;99.90
2465;DHT22;1244;54.326;10.074;2023-07-20T12:33:35;25.00;99.90
2465;DHT22;1244;54.326;10.074;2023-07-20T12:36:01;23.70;99.90
2465;DHT22;1244;54.326;10.074;2023-07-20T12:38:26;23.40;99.90
2465;DHT22;1244;54.326;10.074;2023-07-20T12:40:53;23.00;99.90
2465;DHT22;1244;54.326;10.074;2023-07-20T12:43:21;22.60;99.90
2465;DHT22;1244;54.326;10.074;2023-07-20T12:45:48;22.00;99.90
2465;DHT22;1244;54.326;10.074;2023-07-20T12:48:13;21.70;99.90
2465;DHT22;1244;54.326;10.074;2023-07-20T12:50:39;20.90;99.90
2465;DHT22;1244;54.326;10.074;2023-07-20T12:53:05;20.80;99.90
2465;DHT22;1244;54.326;10.074;2023-07-20T12:55:31;20.80;99.90
2465;DHT22;1244;54.326;10.074;2023-07-20T12:57:57;20.20;99.90
2465;DHT22;1244;54.326;10.074;2023-07-20T13:00:22;20.10;99.90
2465;DHT22;1244;54.326;10.074;2023-07-20T13:02:48;20.10;99.90
2465;DHT22;1244;54.326;10.074;2023-07-20T13:05:14;19.70;99.90
2465;DHT22;1244;54.326;10.074;2023-07-20T13:07:41;20.80;99.90
2465;DHT22;1244;54.326;10.074;2023-07-20T13:10:07;21.90;99.90
2465;DHT22;1244;54.326;10.074;2023-07-20T13:12:33;22.50;99.90
2465;DHT22;1244;54.326;10.074;2023-07-20T13:15:01;23.00;99.90
2465;DHT22;1244;54.326;10.074;2023-07-20T13:17:28;22.70;99.90
2465;DHT22;1244;54.326;10.074;2023-07-20T13:19:54;23.20;99.90
2465;DHT22;1244;54.326;10.074;2023-07-20T13:22:20;23.80;99.90
2465;DHT22;1244;54.326;10.074;2023-07-20T13:24:46;24.00;99.90
2465;DHT22;1244;54.326;10.074;2023-07-20T13:27:19;23.90;99.90
2465;DHT22;1244;54.326;10.074;2023-07-20T13:29:45;24.10;99.90
2465;DHT22;1244;54.326;10.074;2023-07-20T13:32:14;24.40;99.90
2465;DHT22;1244;54.326;10.074;2023-07-20T13:34:44;23.70;99.90
2465;DHT22;1244;54.326;10.074;2023-07-20T13:37:10;24.20;99.90
2465;DHT22;1244;54.326;10.074;2023-07-20T13:39:36;24.60;99.90
2465;DHT22;1244;54.326;10.074;2023-07-20T13:42:02;24.10;99.90
2465;DHT22;1244;54.326;10.074;2023-07-20T13:44:33;23.50;99.90
2465;DHT22;1244;54.326;10.074;2023-07-20T13:46:59;24.00;99.90
2465;DHT22;1244;54.326;10.074;2023-07-20T13:49:25;23.70;99.90
2465;DHT22;1244;54.326;10.074;2023-07-20T13:51:50;24.00;99.90
2465;DHT22;1244;54.326;10.074;2023-07-20T13:54:16;23.80;99.90
2465;DHT22;1244;54.326;10.074;2023-07-20T13:56:41;23.80;99.90
2465;DHT22;1244;54.326;10.074;2023-07-20T13:59:07;24.20;99.90
2465;DHT22;1244;54.326;10.074;2023-07-20T14:01:33;23.70;99.90
2465;DHT22;1244;54.326;10.074;2023-07-20T14:04:00;23.70;99.90
2465;DHT22;1244;54.326;10.074;2023-07-20T14:06:26;24.10;99.90
2465;DHT22;1244;54.326;10.074;2023-07-20T14:08:51;23.50;99.90
2465;DHT22;1244;54.326;10.074;2023-07-20T14:11:18;24.10;99.90
2465;DHT22;1244;54.326;10.074;2023-07-20T14:13:44;23.20;99.90
2465;DHT22;1244;54.326;10.074;2023-07-20T14:16:09;23.70;99.90
2465;DHT22;1244;54.326;10.074;2023-07-20T14:18:35;24.20;99.90
2465;DHT22;1244;54.326;10.074;2023-07-20T14:21:00;23.30;99.90
2465;DHT22;1244;54.326;10.074;2023-07-20T14:23:28;23.30;99.90
2465;DHT22;1244;54.326;10.074;2023-07-20T14:25:54;23.60;99.90
2465;DHT22;1244;54.326;10.074;2023-07-20T14:28:19;23.40;99.90
2465;DHT22;1244;54.326;10.074;2023-07-20T14:30:45;23.40;99.90
2465;DHT22;1244;54.326;10.074;2023-07-20T14:33:11;23.50;99.90
2465;DHT22;1244;54.326;10.074;2023-07-20T14:35:36;23.50;99.90
2465;DHT22;1244;54.326;10.074;2023-07-20T14:38:02;23.00;99.90
2465;DHT22;1244;54.326;10.074;2023-07-20T14:40:28;22.60;99.90
2465;DHT22;1244;54.326;10.074;2023-07-20T14:42:58;22.80;99.90
2465;DHT22;1244;54.326;10.074;2023-07-20T14:45:27;23.50;99.90
2465;DHT22;1244;54.326;10.074;2023-07-20T14:47:52;23.70;99.90
2465;DHT22;1244;54.326;10.074;2023-07-20T14:50:20;23.50;99.90
2465;DHT22;1244;54.326;10.074;2023-07-20T14:52:45;23.10;99.90
2465;DHT22;1244;54.326;10.074;2023-07-20T14:55:11;22.50;99.90
2465;DHT22;1244;54.326;10.074;2023-07-20T14:57:37;22.20;99.90
2465;DHT22;1244;54.326;10.074;2023-07-20T15:00:03;21.90;99.90
2465;DHT22;1244;54.326;10.074;2023-07-20T15:02:33;21.70;99.90
2465;DHT22;1244;54.326;10.074;2023-07-20T15:04:59;21.80;99.90
2465;DHT22;1244;54.326;10.074;2023-07-20T15:07:25;21.30;99.90
2465;DHT22;1244;54.326;10.074;2023-07-20T15:09:51;20.80;99.90
2465;DHT22;1244;54.326;10.074;2023-07-20T15:12:17;20.50;99.90
2465;DHT22;1244;54.326;10.074;2023-07-20T15:14:43;20.30;99.90
2465;DHT22;1244;54.326;10.074;2023-07-20T15:17:09;21.20;99.90
2465;DHT22;1244;54.326;10.074;2023-07-20T15:19:35;21.50;99.90
2465;DHT22;1244;54.326;10.074;2023-07-20T15:22:01;21.70;99.90
2465;DHT22;1244;54.326;10.074;2023-07-20T15:24:28;21.50;99.90
2465;DHT22;1244;54.326;10.074;2023-07-20T15:26:54;21.40;99.90
2465;DHT22;1244;54.326;10.074;2023-07-20T15:29:19;21.50;99.90
2465;DHT22;1244;54.326;10.074;2023-07-20T15:31:46;20.70;99.90
2465;DHT22;1244;54.326;10.074;2023-07-20T15:34:12;21.40;99.90
2465;DHT22;1244;54.326;10.074;2023-07-20T15:36:39;21.10;99.90
2465;DHT22;1244;54.326;10.074;2023-07-20T15:39:06;21.20;99.90
2465;DHT22;1244;54.326;10.074;2023-07-20T15:41:31;20.90;99.90
2465;DHT22;1244;54.326;10.074;2023-07-20T15:43:57;20.80;99.90
2465;DHT22;1244;54.326;10.074;2023-07-20T15:48:48;21.30;99.90
2465;DHT22;1244;54.326;10.074;2023-07-20T15:51:14;21.10;99.90
2465;DHT22;1244;54.326;10.074;2023-07-20T15:53:39;21.10;99.90
2465;DHT22;1244;54.326;10.074;2023-07-20T15:56:05;21.00;99.90
2465;DHT22;1244;54.326;10.074;2023-07-20T15:58:32;20.60;99.90
2465;DHT22;1244;54.326;10.074;2023-07-20T16:00:58;20.30;99.90
2465;DHT22;1244;54.326;10.074;2023-07-20T16:03:24;20.10;99.90